sensor_id;sensor_type;location;lat;lon;timestamp;pressure;altitude;pressure_sealevel;temperature;humidity
19795;BME280;10057;59.402;17.866;2022-11-15T00:01:10;101671.91;;;7.07;89.09
19795;BME280;10057;59.402;17.866;2022-11-15T00:03:42;101664.94;;;7.01;89.01
19795;BME280;10057;59.402;17.866;2022-11-15T00:06:09;101668.44;;;7.00;89.21
19795;BME280;10057;59.402;17.866;2022-11-15T00:08:36;101672.00;;;6.96;88.86
19795;BME280;10057;59.402;17.866;2022-11-15T00:11:02;101657.06;;;6.95;88.88
19795;BME280;10057;59.402;17.866;2022-11-15T00:13:30;101653.56;;;6.95;88.96
19795;BME280;10057;59.402;17.866;2022-11-15T00:15:58;101650.03;;;6.93;89.03
19795;BME280;10057;59.402;17.866;2022-11-15T00:18:26;101641.28;;;6.89;88.68
19795;BME280;10057;59.402;17.866;2022-11-15T00:20:53;101644.78;;;6.89;89.07
19795;BME280;10057;59.402;17.866;2022-11-15T00:23:19;101643.00;;;6.90;89.02
19795;BME280;10057;59.402;17.866;2022-11-15T00:25:46;101648.28;;;6.90;88.98
19795;BME280;10057;59.402;17.866;2022-11-15T00:28:13;101658.84;;;6.95;89.26
19795;BME280;10057;59.402;17.866;2022-11-15T00:30:39;101651.78;;;6.98;89.45
19795;BME280;10057;59.402;17.866;2022-11-15T00:33:06;101646.44;;;7.03;89.27
19795;BME280;10057;59.402;17.866;2022-11-15T00:35:33;101632.38;;;7.02;88.98
19795;BME280;10057;59.402;17.866;2022-11-15T00:38:01;101638.56;;;6.98;88.75
19795;BME280;10057;59.402;17.866;2022-11-15T00:40:28;101632.41;;;6.96;88.75
19795;BME280;10057;59.402;17.866;2022-11-15T00:42:55;101630.69;;;6.95;89.19
19795;BME280;10057;59.402;17.866;2022-11-15T00:45:22;101623.66;;;6.94;88.57
19795;BME280;10057;59.402;17.866;2022-11-15T00:47:49;101630.72;;;6.91;88.97
19795;BME280;10057;59.402;17.866;2022-11-15T00:50:16;101639.53;;;6.86;88.60
19795;BME280;10057;59.402;17.866;2022-11-15T00:52:43;101638.69;;;6.83;88.70
19795;BME280;10057;59.402;17.866;2022-11-15T00:55:17;101636.06;;;6.81;88.53
19795;BME280;10057;59.402;17.866;2022-11-15T00:57:47;101636.03;;;6.84;89.20
19795;BME280;10057;59.402;17.866;2022-11-15T01:00:13;101635.19;;;6.84;88.52
19795;BME280;10057;59.402;17.866;2022-11-15T01:02:40;101630.78;;;6.84;88.76
19795;BME280;10057;59.402;17.866;2022-11-15T01:05:07;101641.28;;;6.86;88.71
19795;BME280;10057;59.402;17.866;2022-11-15T01:07:35;101643.00;;;6.90;88.92
19795;BME280;10057;59.402;17.866;2022-11-15T01:10:02;101649.16;;;6.92;89.21
19795;BME280;10057;59.402;17.866;2022-11-15T01:12:31;101650.88;;;6.96;88.92
19795;BME280;10057;59.402;17.866;2022-11-15T01:14:58;101645.59;;;6.99;88.83
19795;BME280;10057;59.402;17.866;2022-11-15T01:17:25;101645.56;;;7.02;88.97
19795;BME280;10057;59.402;17.866;2022-11-15T01:19:51;101648.19;;;7.04;88.67
19795;BME280;10057;59.402;17.866;2022-11-15T01:22:20;101652.59;;;7.03;89.06
19795;BME280;10057;59.402;17.866;2022-11-15T01:24:46;101652.59;;;7.03;88.64
19795;BME280;10057;59.402;17.866;2022-11-15T01:27:13;101660.50;;;7.03;88.63
19795;BME280;10057;59.402;17.866;2022-11-15T01:29:40;101655.25;;;7.00;88.71
19795;BME280;10057;59.402;17.866;2022-11-15T01:32:06;101663.16;;;7.00;88.71
19795;BME280;10057;59.402;17.866;2022-11-15T01:34:33;101662.31;;;6.98;88.47
19795;BME280;10057;59.402;17.866;2022-11-15T01:37:00;101669.34;;;6.96;88.48
19795;BME280;10057;59.402;17.866;2022-11-15T01:39:26;101665.03;;;6.91;88.04
19795;BME280;10057;59.402;17.866;2022-11-15T01:41:54;101666.75;;;6.90;88.61
19795;BME280;10057;59.402;17.866;2022-11-15T01:47:02;101652.69;;;6.91;88.71
19795;BME280;10057;59.402;17.866;2022-11-15T01:49:32;101665.88;;;6.93;88.43
19795;BME280;10057;59.402;17.866;2022-11-15T01:52:01;101657.09;;;6.92;88.75
19795;BME280;10057;59.402;17.866;2022-11-15T01:54:29;101658.84;;;6.90;88.51
19795;BME280;10057;59.402;17.866;2022-11-15T01:57:06;101658.00;;;6.86;88.59
19795;BME280;10057;59.402;17.866;2022-11-15T01:59:34;101657.13;;;6.86;88.72
19795;BME280;10057;59.402;17.866;2022-11-15T02:02:01;101660.66;;;6.83;88.16
19795;BME280;10057;59.402;17.866;2022-11-15T02:04:32;101655.44;;;6.77;88.50
19795;BME280;10057;59.402;17.866;2022-11-15T02:07:04;101651.94;;;6.75;88.22
19795;BME280;10057;59.402;17.866;2022-11-15T02:09:31;101644.94;;;6.71;88.00
19795;BME280;10057;59.402;17.866;2022-11-15T02:11:59;101649.34;;;6.68;88.16
19795;BME280;10057;59.402;17.866;2022-11-15T02:14:27;101646.72;;;6.68;88.32
19795;BME280;10057;59.402;17.866;2022-11-15T02:17:17;101651.06;;;6.72;88.79
19795;BME280;10057;59.402;17.866;2022-11-15T02:20:13;101646.69;;;6.74;88.67
19795;BME280;10057;59.402;17.866;2022-11-15T02:28:16;101649.25;;;6.77;88.51
19795;BME280;10057;59.402;17.866;2022-11-15T02:36:42;101658.06;;;6.76;88.27
19795;BME280;10057;59.402;17.866;2022-11-15T02:39:13;101660.75;;;6.74;88.16
19795;BME280;10057;59.402;17.866;2022-11-15T02:44:33;101660.78;;;6.68;88.08
19795;BME280;10057;59.402;17.866;2022-11-15T02:47:07;101661.66;;;6.67;88.42
19795;BME280;10057;59.402;17.866;2022-11-15T02:49:45;101664.28;;;6.69;88.41
19795;BME280;10057;59.402;17.866;2022-11-15T02:52:19;101669.56;;;6.67;88.18
19795;BME280;10057;59.402;17.866;2022-11-15T02:55:00;101666.06;;;6.62;87.85
19795;BME280;10057;59.402;17.866;2022-11-15T02:57:48;101666.97;;;6.56;87.91
19795;BME280;10057;59.402;17.866;2022-11-15T03:00:19;101678.44;;;6.52;88.20
19795;BME280;10057;59.402;17.866;2022-11-15T03:08:10;101667.97;;;6.40;87.73
19795;BME280;10057;59.402;17.866;2022-11-15T03:13:47;101665.38;;;6.31;87.95
19795;BME280;10057;59.402;17.866;2022-11-15T03:16:24;101672.41;;;6.29;87.79
19795;BME280;10057;59.402;17.866;2022-11-15T03:19:19;101669.78;;;6.27;88.16
19795;BME280;10057;59.402;17.866;2022-11-15T03:21:42;101661.91;;;6.26;87.81
19795;BME280;10057;59.402;17.866;2022-11-15T03:24:11;101661.91;;;6.23;88.15
19795;BME280;10057;59.402;17.866;2022-11-15T03:26:40;101666.31;;;6.19;87.86
19795;BME280;10057;59.402;17.866;2022-11-15T03:29:22;101662.81;;;6.15;87.57
19795;BME280;10057;59.402;17.866;2022-11-15T03:31:55;101676.00;;;6.15;88.24
19795;BME280;10057;59.402;17.866;2022-11-15T03:37:13;101683.03;;;6.13;87.99
19795;BME280;10057;59.402;17.866;2022-11-15T03:39:42;101685.66;;;6.12;88.07
19795;BME280;10057;59.402;17.866;2022-11-15T03:47:34;101684.81;;;6.05;88.11
19795;BME280;10057;59.402;17.866;2022-11-15T03:50:10;101676.03;;;6.03;88.10
19795;BME280;10057;59.402;17.866;2022-11-15T03:52:39;101682.16;;;6.04;88.34
19795;BME280;10057;59.402;17.866;2022-11-15T03:55:10;101683.06;;;6.06;88.46
19795;BME280;10057;59.402;17.866;2022-11-15T03:57:37;101677.78;;;6.07;88.46
19795;BME280;10057;59.402;17.866;2022-11-15T04:00:04;101688.31;;;6.07;88.15
19795;BME280;10057;59.402;17.866;2022-11-15T04:02:31;101683.03;;;6.04;88.16
19795;BME280;10057;59.402;17.866;2022-11-15T04:04:58;101676.91;;;6.04;87.96
19795;BME280;10057;59.402;17.866;2022-11-15T04:07:25;101683.94;;;6.03;88.13
19795;BME280;10057;59.402;17.866;2022-11-15T04:09:52;101684.81;;;6.04;87.85
19795;BME280;10057;59.402;17.866;2022-11-15T04:12:40;101687.47;;;6.02;87.98
19795;BME280;10057;59.402;17.866;2022-11-15T04:15:17;101694.50;;;6.02;88.03
19795;BME280;10057;59.402;17.866;2022-11-15T04:17:52;101698.84;;;6.01;88.14
19795;BME280;10057;59.402;17.866;2022-11-15T04:20:20;101697.09;;;6.03;88.34
19795;BME280;10057;59.402;17.866;2022-11-15T04:23:10;101693.59;;;6.01;87.81
19795;BME280;10057;59.402;17.866;2022-11-15T04:26:22;101692.72;;;5.98;88.02
19795;BME280;10057;59.402;17.866;2022-11-15T04:28:46;101707.66;;;6.00;88.23
19795;BME280;10057;59.402;17.866;2022-11-15T04:31:32;101700.63;;;6.02;88.14
19795;BME280;10057;59.402;17.866;2022-11-15T04:33:58;101704.13;;;6.04;88.23
19795;BME280;10057;59.402;17.866;2022-11-15T04:36:25;101699.75;;;6.03;88.10
19795;BME280;10057;59.402;17.866;2022-11-15T04:39:10;101705.91;;;6.05;88.27
19795;BME280;10057;59.402;17.866;2022-11-15T04:41:37;101705.91;;;6.05;88.03
19795;BME280;10057;59.402;17.866;2022-11-15T04:44:04;101698.84;;;6.04;88.38
19795;BME280;10057;59.402;17.866;2022-11-15T04:46:30;101704.13;;;6.04;88.00
19795;BME280;10057;59.402;17.866;2022-11-15T04:48:57;101703.25;;;6.05;87.56
19795;BME280;10057;59.402;17.866;2022-11-15T04:51:25;101706.78;;;6.06;87.76
19795;BME280;10057;59.402;17.866;2022-11-15T04:53:51;101701.50;;;6.09;87.67
19795;BME280;10057;59.402;17.866;2022-11-15T04:56:20;101701.47;;;6.10;88.46
19795;BME280;10057;59.402;17.866;2022-11-15T04:58:50;101703.22;;;6.11;88.24
19795;BME280;10057;59.402;17.866;2022-11-15T05:01:18;101704.09;;;6.13;87.84
19795;BME280;10057;59.402;17.866;2022-11-15T05:03:45;101704.97;;;6.14;88.19
19795;BME280;10057;59.402;17.866;2022-11-15T05:06:34;101704.09;;;6.13;87.98
19795;BME280;10057;59.402;17.866;2022-11-15T05:09:00;101711.13;;;6.14;88.03
19795;BME280;10057;59.402;17.866;2022-11-15T05:11:27;101711.13;;;6.16;87.65
19795;BME280;10057;59.402;17.866;2022-11-15T05:13:53;101716.41;;;6.16;87.68
19795;BME280;10057;59.402;17.866;2022-11-15T05:16:20;101719.03;;;6.16;87.71
19795;BME280;10057;59.402;17.866;2022-11-15T05:18:51;101711.97;;;6.15;87.86
19795;BME280;10057;59.402;17.866;2022-11-15T05:21:18;101714.63;;;6.13;87.99
19795;BME280;10057;59.402;17.866;2022-11-15T05:23:45;101708.47;;;6.14;87.75
19795;BME280;10057;59.402;17.866;2022-11-15T05:26:12;101706.72;;;6.15;88.10
19795;BME280;10057;59.402;17.866;2022-11-15T05:28:38;101699.72;;;6.12;87.76
19795;BME280;10057;59.402;17.866;2022-11-15T05:31:07;101699.72;;;6.12;87.90
19795;BME280;10057;59.402;17.866;2022-11-15T05:33:35;101710.25;;;6.14;87.67
19795;BME280;10057;59.402;17.866;2022-11-15T05:36:05;101703.22;;;6.11;87.74
19795;BME280;10057;59.402;17.866;2022-11-15T05:38:34;101717.28;;;6.10;88.04
19795;BME280;10057;59.402;17.866;2022-11-15T05:41:01;101711.13;;;6.10;87.86
19795;BME280;10057;59.402;17.866;2022-11-15T05:43:31;101707.63;;;6.12;87.67
19795;BME280;10057;59.402;17.866;2022-11-15T05:46:00;101719.03;;;6.13;87.92
19795;BME280;10057;59.402;17.866;2022-11-15T05:48:27;101713.78;;;6.10;87.52
19795;BME280;10057;59.402;17.866;2022-11-15T05:50:54;101720.78;;;6.11;87.72
19795;BME280;10057;59.402;17.866;2022-11-15T05:53:23;101726.94;;;6.11;87.42
19795;BME280;10057;59.402;17.866;2022-11-15T05:55:51;101728.72;;;6.12;87.59
19795;BME280;10057;59.402;17.866;2022-11-15T05:58:18;101724.31;;;6.13;87.31
19795;BME280;10057;59.402;17.866;2022-11-15T06:00:46;101738.34;;;6.12;87.48
19795;BME280;10057;59.402;17.866;2022-11-15T06:03:13;101744.50;;;6.11;87.58
19795;BME280;10057;59.402;17.866;2022-11-15T06:05:40;101736.59;;;6.11;87.19
19795;BME280;10057;59.402;17.866;2022-11-15T06:08:07;101744.50;;;6.11;87.59
19795;BME280;10057;59.402;17.866;2022-11-15T06:10:33;101737.47;;;6.13;87.98
19795;BME280;10057;59.402;17.866;2022-11-15T06:13:02;101742.72;;;6.14;87.17
19795;BME280;10057;59.402;17.866;2022-11-15T06:15:29;101754.16;;;6.16;87.04
19795;BME280;10057;59.402;17.866;2022-11-15T06:17:56;101748.00;;;6.17;87.73
19795;BME280;10057;59.402;17.866;2022-11-15T06:20:28;101754.16;;;6.20;87.23
19795;BME280;10057;59.402;17.866;2022-11-15T06:22:58;101748.88;;;6.20;87.52
19795;BME280;10057;59.402;17.866;2022-11-15T06:25:26;101754.13;;;6.21;87.14
19795;BME280;10057;59.402;17.866;2022-11-15T06:27:54;101758.53;;;6.24;86.81
19795;BME280;10057;59.402;17.866;2022-11-15T06:30:22;101761.13;;;6.25;86.97
19795;BME280;10057;59.402;17.866;2022-11-15T06:32:49;101770.81;;;6.28;86.62
19795;BME280;10057;59.402;17.866;2022-11-15T06:35:16;101767.31;;;6.26;86.97
19795;BME280;10057;59.402;17.866;2022-11-15T06:37:43;101767.31;;;6.26;86.40
19795;BME280;10057;59.402;17.866;2022-11-15T06:40:10;101762.91;;;6.28;87.03
19795;BME280;10057;59.402;17.866;2022-11-15T06:42:36;101765.53;;;6.28;86.61
19795;BME280;10057;59.402;17.866;2022-11-15T06:45:03;101769.94;;;6.30;86.10
19795;BME280;10057;59.402;17.866;2022-11-15T06:47:30;101782.22;;;6.31;86.52
19795;BME280;10057;59.402;17.866;2022-11-15T06:49:57;101785.75;;;6.30;86.09
19795;BME280;10057;59.402;17.866;2022-11-15T06:52:23;101786.59;;;6.31;85.88
19795;BME280;10057;59.402;17.866;2022-11-15T06:54:50;101772.53;;;6.32;86.55
19795;BME280;10057;59.402;17.866;2022-11-15T06:57:17;101784.84;;;6.33;86.59
19795;BME280;10057;59.402;17.866;2022-11-15T06:59:43;101784.84;;;6.33;86.18
19795;BME280;10057;59.402;17.866;2022-11-15T07:02:13;101780.44;;;6.29;86.01
19795;BME280;10057;59.402;17.866;2022-11-15T07:04:40;101792.75;;;6.34;86.02
19795;BME280;10057;59.402;17.866;2022-11-15T07:07:06;101793.63;;;6.33;85.59
19795;BME280;10057;59.402;17.866;2022-11-15T07:09:33;101790.13;;;6.33;85.89
19795;BME280;10057;59.402;17.866;2022-11-15T07:12:00;101782.22;;;6.31;85.83
19795;BME280;10057;59.402;17.866;2022-11-15T07:14:33;101789.25;;;6.31;85.74
19795;BME280;10057;59.402;17.866;2022-11-15T07:16:59;101795.41;;;6.30;85.42
19795;BME280;10057;59.402;17.866;2022-11-15T07:19:26;101793.63;;;6.29;85.58
19795;BME280;10057;59.402;17.866;2022-11-15T07:21:52;101788.41;;;6.26;85.34
19795;BME280;10057;59.402;17.866;2022-11-15T07:24:19;101793.66;;;6.26;85.46
19795;BME280;10057;59.402;17.866;2022-11-15T07:26:45;101792.78;;;6.27;85.11
19795;BME280;10057;59.402;17.866;2022-11-15T07:29:12;101797.19;;;6.26;85.00
19795;BME280;10057;59.402;17.866;2022-11-15T07:31:39;101793.66;;;6.26;85.03
19795;BME280;10057;59.402;17.866;2022-11-15T07:34:06;101792.78;;;6.27;85.25
19795;BME280;10057;59.402;17.866;2022-11-15T07:36:32;101783.97;;;6.28;85.00
19795;BME280;10057;59.402;17.866;2022-11-15T07:38:59;101794.53;;;6.28;84.89
19795;BME280;10057;59.402;17.866;2022-11-15T07:41:26;101792.75;;;6.28;84.92
19795;BME280;10057;59.402;17.866;2022-11-15T07:43:52;101795.41;;;6.30;84.90
19795;BME280;10057;59.402;17.866;2022-11-15T07:46:19;101804.16;;;6.32;84.82
19795;BME280;10057;59.402;17.866;2022-11-15T07:48:46;101800.69;;;6.30;84.71
19795;BME280;10057;59.402;17.866;2022-11-15T07:51:13;101800.69;;;6.27;84.92
19795;BME280;10057;59.402;17.866;2022-11-15T07:53:44;101803.31;;;6.25;84.88
19795;BME280;10057;59.402;17.866;2022-11-15T07:56:11;101801.56;;;6.21;84.93
19795;BME280;10057;59.402;17.866;2022-11-15T07:58:38;101805.09;;;6.20;84.81
19795;BME280;10057;59.402;17.866;2022-11-15T08:01:06;101802.44;;;6.18;84.70
19795;BME280;10057;59.402;17.866;2022-11-15T08:03:33;101803.34;;;6.17;84.81
19795;BME280;10057;59.402;17.866;2022-11-15T08:06:00;101809.50;;;6.16;85.00
19795;BME280;10057;59.402;17.866;2022-11-15T08:08:27;101813.03;;;6.15;84.95
19795;BME280;10057;59.402;17.866;2022-11-15T08:10:54;101815.63;;;6.14;84.41
19795;BME280;10057;59.402;17.866;2022-11-15T08:13:21;101820.03;;;6.13;84.73
19795;BME280;10057;59.402;17.866;2022-11-15T08:15:47;101816.50;;;6.14;84.30
19795;BME280;10057;59.402;17.866;2022-11-15T08:18:21;101820.91;;;6.14;84.72
19795;BME280;10057;59.402;17.866;2022-11-15T08:20:48;101820.03;;;6.16;84.50
19795;BME280;10057;59.402;17.866;2022-11-15T08:23:15;101817.38;;;6.18;84.80
19795;BME280;10057;59.402;17.866;2022-11-15T08:25:41;101823.53;;;6.18;84.26
19795;BME280;10057;59.402;17.866;2022-11-15T08:28:10;101827.91;;;6.18;84.85
19795;BME280;10057;59.402;17.866;2022-11-15T08:30:39;101827.94;;;6.20;84.51
19795;BME280;10057;59.402;17.866;2022-11-15T08:33:13;101830.56;;;6.20;84.75
19795;BME280;10057;59.402;17.866;2022-11-15T08:35:41;101831.44;;;6.18;84.14
19795;BME280;10057;59.402;17.866;2022-11-15T08:38:08;101826.19;;;6.17;84.13
19795;BME280;10057;59.402;17.866;2022-11-15T08:40:35;101839.34;;;6.18;84.01
19795;BME280;10057;59.402;17.866;2022-11-15T08:43:02;101820.91;;;6.20;84.61
19795;BME280;10057;59.402;17.866;2022-11-15T08:45:30;101826.16;;;6.22;84.30
19795;BME280;10057;59.402;17.866;2022-11-15T08:47:57;101825.31;;;6.23;84.21
19795;BME280;10057;59.402;17.866;2022-11-15T08:50:24;101829.66;;;6.25;83.84
19795;BME280;10057;59.402;17.866;2022-11-15T08:52:50;101830.53;;;6.29;84.41
19795;BME280;10057;59.402;17.866;2022-11-15T08:55:17;101838.44;;;6.33;84.39
19795;BME280;10057;59.402;17.866;2022-11-15T08:57:44;101842.84;;;6.36;84.19
19795;BME280;10057;59.402;17.866;2022-11-15T09:00:11;101838.44;;;6.39;83.54
19795;BME280;10057;59.402;17.866;2022-11-15T09:02:39;101845.44;;;6.42;83.75
19795;BME280;10057;59.402;17.866;2022-11-15T09:05:07;101848.97;;;6.44;83.81
19795;BME280;10057;59.402;17.866;2022-11-15T09:07:34;101859.50;;;6.46;83.57
19795;BME280;10057;59.402;17.866;2022-11-15T09:10:00;101863.00;;;6.48;83.30
19795;BME280;10057;59.402;17.866;2022-11-15T09:12:27;101866.53;;;6.48;83.13
19795;BME280;10057;59.402;17.866;2022-11-15T09:14:54;101863.88;;;6.51;83.17
19795;BME280;10057;59.402;17.866;2022-11-15T09:17:21;101862.13;;;6.53;83.00
19795;BME280;10057;59.402;17.866;2022-11-15T09:19:50;101869.16;;;6.57;82.74
19795;BME280;10057;59.402;17.866;2022-11-15T09:22:17;101863.88;;;6.60;83.19
19795;BME280;10057;59.402;17.866;2022-11-15T09:24:47;101871.78;;;6.63;82.80
19795;BME280;10057;59.402;17.866;2022-11-15T09:27:13;101868.25;;;6.64;82.53
19795;BME280;10057;59.402;17.866;2022-11-15T09:29:40;101863.81;;;6.67;82.39
19795;BME280;10057;59.402;17.866;2022-11-15T09:32:06;101874.38;;;6.65;82.11
19795;BME280;10057;59.402;17.866;2022-11-15T09:34:33;101882.28;;;6.67;82.28
19795;BME280;10057;59.402;17.866;2022-11-15T09:37:02;101874.38;;;6.67;81.86
19795;BME280;10057;59.402;17.866;2022-11-15T09:39:29;101878.78;;;6.68;82.18
19795;BME280;10057;59.402;17.866;2022-11-15T09:41:58;101868.22;;;6.69;81.85
19795;BME280;10057;59.402;17.866;2022-11-15T09:44:38;101876.16;;;6.71;82.27
19795;BME280;10057;59.402;17.866;2022-11-15T09:49:58;101872.59;;;6.72;82.02
19795;BME280;10057;59.402;17.866;2022-11-15T09:52:28;101884.91;;;6.73;81.88
19795;BME280;10057;59.402;17.866;2022-11-15T09:54:55;101893.69;;;6.73;81.95
19795;BME280;10057;59.402;17.866;2022-11-15T09:57:32;101893.69;;;6.75;81.47
19795;BME280;10057;59.402;17.866;2022-11-15T10:00:13;101888.41;;;6.73;81.47
19795;BME280;10057;59.402;17.866;2022-11-15T10:03:12;101882.28;;;6.74;81.71
19795;BME280;10057;59.402;17.866;2022-11-15T10:06:05;101877.88;;;6.75;81.38
19795;BME280;10057;59.402;17.866;2022-11-15T10:08:45;101884.03;;;6.74;81.08
19795;BME280;10057;59.402;17.866;2022-11-15T10:11:20;101883.16;;;6.75;81.17
19795;BME280;10057;59.402;17.866;2022-11-15T10:14:19;101890.19;;;6.76;81.35
19795;BME280;10057;59.402;17.866;2022-11-15T10:19:38;101875.22;;;6.78;81.06
19795;BME280;10057;59.402;17.866;2022-11-15T10:22:16;101881.38;;;6.80;81.12
19795;BME280;10057;59.402;17.866;2022-11-15T10:24:46;101887.50;;;6.83;81.33
19795;BME280;10057;59.402;17.866;2022-11-15T10:27:16;101883.09;;;6.87;80.92
19795;BME280;10057;59.402;17.866;2022-11-15T10:29:48;101892.75;;;6.89;81.23
19795;BME280;10057;59.402;17.866;2022-11-15T10:32:18;101886.63;;;6.91;80.81
19795;BME280;10057;59.402;17.866;2022-11-15T10:34:45;101883.97;;;6.92;81.13
19795;BME280;10057;59.402;17.866;2022-11-15T10:37:13;101889.22;;;6.94;81.02
19795;BME280;10057;59.402;17.866;2022-11-15T10:39:39;101891.84;;;6.94;80.81
19795;BME280;10057;59.402;17.866;2022-11-15T10:44:44;101890.13;;;6.94;80.58
19795;BME280;10057;59.402;17.866;2022-11-15T10:47:29;101887.47;;;6.93;80.31
19795;BME280;10057;59.402;17.866;2022-11-15T10:50:27;101888.34;;;6.93;80.11
19795;BME280;10057;59.402;17.866;2022-11-15T10:52:55;101897.16;;;6.95;80.63
19795;BME280;10057;59.402;17.866;2022-11-15T10:55:25;101883.97;;;6.95;80.04
19795;BME280;10057;59.402;17.866;2022-11-15T11:00:46;101874.28;;;6.99;79.70
19795;BME280;10057;59.402;17.866;2022-11-15T11:03:34;101873.38;;;6.97;79.40
19795;BME280;10057;59.402;17.866;2022-11-15T11:08:40;101887.47;;;6.96;79.02
19795;BME280;10057;59.402;17.866;2022-11-15T11:11:07;101880.44;;;6.95;79.01
19795;BME280;10057;59.402;17.866;2022-11-15T11:13:39;101878.66;;;6.94;78.88
19795;BME280;10057;59.402;17.866;2022-11-15T11:16:19;101876.94;;;6.93;78.64
19795;BME280;10057;59.402;17.866;2022-11-15T11:37:46;101896.22;;;7.05;78.40
19795;BME280;10057;59.402;17.866;2022-11-15T11:48:12;101879.59;;;6.91;77.63
19795;BME280;10057;59.402;17.866;2022-11-15T11:50:44;101890.13;;;6.91;77.51
19795;BME280;10057;59.402;17.866;2022-11-15T11:53:31;101882.22;;;6.89;77.88
19795;BME280;10057;59.402;17.866;2022-11-15T11:56:06;101893.66;;;6.88;77.74
19795;BME280;10057;59.402;17.866;2022-11-15T11:58:38;101895.41;;;6.88;77.67
19795;BME280;10057;59.402;17.866;2022-11-15T12:14:42;101891.91;;;6.86;77.66
19795;BME280;10057;59.402;17.866;2022-11-15T12:17:11;101891.00;;;6.87;77.62
19795;BME280;10057;59.402;17.866;2022-11-15T12:19:39;101885.75;;;6.88;77.32
19795;BME280;10057;59.402;17.866;2022-11-15T12:22:09;101886.63;;;6.89;77.28
19795;BME280;10057;59.402;17.866;2022-11-15T12:24:51;101888.38;;;6.90;77.17
19795;BME280;10057;59.402;17.866;2022-11-15T12:28:14;101881.34;;;6.92;77.33
19795;BME280;10057;59.402;17.866;2022-11-15T12:31:09;101887.50;;;6.91;77.04
19795;BME280;10057;59.402;17.866;2022-11-15T12:33:41;101878.72;;;6.91;77.43
19795;BME280;10057;59.402;17.866;2022-11-15T12:38:54;101891.00;;;6.92;77.17
19795;BME280;10057;59.402;17.866;2022-11-15T12:41:29;101880.44;;;6.90;77.38
19795;BME280;10057;59.402;17.866;2022-11-15T12:43:56;101877.81;;;6.90;77.15
19795;BME280;10057;59.402;17.866;2022-11-15T12:49:00;101882.22;;;6.89;77.01
19795;BME280;10057;59.402;17.866;2022-11-15T12:59:52;101876.97;;;6.85;77.07
19795;BME280;10057;59.402;17.866;2022-11-15T13:04:50;101876.09;;;6.80;76.56
19795;BME280;10057;59.402;17.866;2022-11-15T13:13:04;101877.00;;;6.77;76.80
19795;BME280;10057;59.402;17.866;2022-11-15T13:15:56;101866.44;;;6.76;76.73
19795;BME280;10057;59.402;17.866;2022-11-15T13:20:57;101867.31;;;6.76;76.91
19795;BME280;10057;59.402;17.866;2022-11-15T13:23:28;101860.31;;;6.74;76.51
19795;BME280;10057;59.402;17.866;2022-11-15T13:26:14;101869.97;;;6.75;76.48
19795;BME280;10057;59.402;17.866;2022-11-15T13:28:50;101865.59;;;6.71;76.73
19795;BME280;10057;59.402;17.866;2022-11-15T13:33:51;101863.81;;;6.67;76.27
19795;BME280;10057;59.402;17.866;2022-11-15T13:36:22;101872.66;;;6.64;76.84
19795;BME280;10057;59.402;17.866;2022-11-15T13:39:02;101872.63;;;6.62;76.49
19795;BME280;10057;59.402;17.866;2022-11-15T13:41:32;101866.50;;;6.60;76.91
19795;BME280;10057;59.402;17.866;2022-11-15T13:44:00;101865.63;;;6.58;76.56
19795;BME280;10057;59.402;17.866;2022-11-15T13:46:32;101872.63;;;6.56;76.84
19795;BME280;10057;59.402;17.866;2022-11-15T13:49:00;101877.06;;;6.54;76.59
19795;BME280;10057;59.402;17.866;2022-11-15T13:51:46;101877.94;;;6.52;76.81
19795;BME280;10057;59.402;17.866;2022-11-15T13:54:30;101878.81;;;6.49;77.15
19795;BME280;10057;59.402;17.866;2022-11-15T13:57:03;101889.41;;;6.46;77.00
19795;BME280;10057;59.402;17.866;2022-11-15T13:59:35;101887.63;;;6.42;76.96
19795;BME280;10057;59.402;17.866;2022-11-15T14:02:13;101891.16;;;6.35;77.04
19795;BME280;10057;59.402;17.866;2022-11-15T14:07:38;101899.94;;;6.22;76.65
19795;BME280;10057;59.402;17.866;2022-11-15T14:10:45;101899.09;;;6.16;77.25
19795;BME280;10057;59.402;17.866;2022-11-15T14:13:28;101907.88;;;6.14;77.46
19795;BME280;10057;59.402;17.866;2022-11-15T14:16:12;101900.84;;;6.14;76.91
19795;BME280;10057;59.402;17.866;2022-11-15T14:18:50;101905.25;;;6.12;77.10
19795;BME280;10057;59.402;17.866;2022-11-15T14:21:18;101913.16;;;6.06;76.80
19795;BME280;10057;59.402;17.866;2022-11-15T14:23:45;101906.13;;;6.05;77.33
19795;BME280;10057;59.402;17.866;2022-11-15T14:26:32;101921.03;;;6.03;77.40
19795;BME280;10057;59.402;17.866;2022-11-15T14:29:22;101914.88;;;6.01;76.85
19795;BME280;10057;59.402;17.866;2022-11-15T14:31:49;101906.97;;;5.98;77.20
19795;BME280;10057;59.402;17.866;2022-11-15T14:34:15;101903.47;;;5.96;76.74
19795;BME280;10057;59.402;17.866;2022-11-15T14:36:42;101904.34;;;5.98;77.50
19795;BME280;10057;59.402;17.866;2022-11-15T14:39:09;101916.63;;;5.98;76.91
19795;BME280;10057;59.402;17.866;2022-11-15T14:41:36;101905.25;;;5.96;76.47
19795;BME280;10057;59.402;17.866;2022-11-15T14:44:05;101909.63;;;5.93;77.28
19795;BME280;10057;59.402;17.866;2022-11-15T14:46:32;101909.63;;;5.97;76.81
19795;BME280;10057;59.402;17.866;2022-11-15T14:48:59;101915.78;;;5.96;76.54
19795;BME280;10057;59.402;17.866;2022-11-15T14:51:25;101900.84;;;5.93;77.20
19795;BME280;10057;59.402;17.866;2022-11-15T14:53:52;101909.59;;;5.92;76.68
19795;BME280;10057;59.402;17.866;2022-11-15T14:56:20;101926.31;;;5.92;76.69
19795;BME280;10057;59.402;17.866;2022-11-15T14:58:47;101917.50;;;5.92;77.17
19795;BME280;10057;59.402;17.866;2022-11-15T15:01:20;101911.34;;;5.90;77.12
19795;BME280;10057;59.402;17.866;2022-11-15T15:03:47;101906.06;;;5.90;77.21
19795;BME280;10057;59.402;17.866;2022-11-15T15:06:13;101912.22;;;5.92;77.03